createdAt,value
2018-07-15T00:00:01.309Z,3.218688
2018-07-15T00:00:13.887Z,6.437376
2018-07-15T00:00:26.332Z,6.437376
2018-07-15T00:00:38.795Z,6.437376
2018-07-15T00:00:51.225Z,6.437376
2018-07-15T00:01:03.668Z,6.437376
2018-07-15T00:01:16.097Z,8.04672
2018-07-15T00:01:28.531Z,11.265408
2018-07-15T00:01:40.939Z,11.265408
2018-07-15T00:01:53.463Z,11.265408
2018-07-15T00:02:05.881Z,3.218688
2018-07-15T00:02:18.299Z,3.218688
2018-07-15T00:02:30.706Z,3.218688
2018-07-15T00:02:43.142Z,3.218688
2018-07-15T00:02:55.565Z,9.656064
2018-07-15T00:03:07.981Z,8.04672
2018-07-15T00:03:20.398Z,8.04672
2018-07-15T00:03:32.833Z,8.04672
2018-07-15T00:03:45.250Z,8.04672
2018-07-15T00:03:57.656Z,8.04672
2018-07-15T00:04:10.089Z,0
2018-07-15T00:04:22.514Z,3.218688
2018-07-15T00:04:34.932Z,3.218688
2018-07-15T00:04:47.356Z,6.437376
2018-07-15T00:04:59.780Z,6.437376
2018-07-15T00:05:12.238Z,3.218688
2018-07-15T00:05:24.668Z,9.656064
2018-07-15T00:05:37.132Z,11.265408
2018-07-15T00:05:49.565Z,11.265408
2018-07-15T00:06:01.964Z,11.265408
2018-07-15T00:06:14.364Z,8.04672
2018-07-15T00:06:26.758Z,8.04672
2018-07-15T00:06:39.165Z,8.04672
2018-07-15T00:06:51.723Z,8.04672
2018-07-15T00:07:04.183Z,8.04672
2018-07-15T00:07:16.573Z,8.04672
2018-07-15T00:07:28.988Z,9.656064
2018-07-15T00:07:41.400Z,9.656064
2018-07-15T00:07:53.801Z,9.656064
2018-07-15T00:08:06.224Z,9.656064
2018-07-15T00:08:18.687Z,9.656064
2018-07-15T00:08:31.085Z,9.656064
2018-07-15T00:08:43.481Z,11.265408
2018-07-15T00:08:55.913Z,11.265408
2018-07-15T00:09:08.311Z,6.437376
2018-07-15T00:09:20.713Z,8.04672
2018-07-15T00:09:33.111Z,8.04672
2018-07-15T00:09:45.562Z,8.04672
2018-07-15T00:09:57.957Z,8.04672
2018-07-15T00:10:10.363Z,9.656064
2018-07-15T00:10:22.758Z,11.265408
2018-07-15T00:10:35.161Z,11.265408
2018-07-15T00:10:47.570Z,11.265408
2018-07-15T00:10:59.959Z,11.265408
2018-07-15T00:11:12.376Z,8.04672
2018-07-15T00:11:24.844Z,8.04672
2018-07-15T00:11:37.238Z,8.04672
2018-07-15T00:11:49.735Z,8.04672
2018-07-15T00:12:02.186Z,8.04672
2018-07-15T00:12:14.603Z,3.218688
2018-07-15T00:12:27.023Z,3.218688
2018-07-15T00:12:39.567Z,3.218688
2018-07-15T00:12:51.973Z,3.218688
2018-07-15T00:13:04.557Z,3.218688
2018-07-15T00:13:16.953Z,3.218688
2018-07-15T00:13:29.409Z,3.218688
2018-07-15T00:13:41.835Z,3.218688
2018-07-15T00:13:54.237Z,3.218688
2018-07-15T00:14:06.675Z,1.609344
2018-07-15T00:14:19.120Z,1.609344
2018-07-15T00:14:31.504Z,1.609344
2018-07-15T00:14:43.909Z,1.609344
2018-07-15T00:14:56.307Z,1.609344
2018-07-15T00:15:08.722Z,3.218688
2018-07-15T00:15:21.112Z,3.218688
2018-07-15T00:15:33.537Z,3.218688
2018-07-15T00:15:45.963Z,3.218688
2018-07-15T00:15:58.449Z,3.218688
2018-07-15T00:16:10.862Z,1.609344
2018-07-15T00:16:23.272Z,1.609344
2018-07-15T00:16:35.677Z,1.609344
2018-07-15T00:16:48.089Z,1.609344
2018-07-15T00:17:00.480Z,1.609344
2018-07-15T00:17:12.961Z,1.609344
2018-07-15T00:17:25.401Z,3.218688
2018-07-15T00:17:37.826Z,3.218688
2018-07-15T00:17:50.233Z,3.218688
2018-07-15T00:18:02.704Z,3.218688
2018-07-15T00:18:15.197Z,3.218688
2018-07-15T00:18:27.604Z,3.218688
2018-07-15T00:18:40.001Z,3.218688
2018-07-15T00:18:52.406Z,3.218688
2018-07-15T00:19:04.824Z,0
2018-07-15T00:19:17.246Z,1.609344
2018-07-15T00:19:29.657Z,1.609344
2018-07-15T00:19:42.068Z,3.218688
2018-07-15T00:19:54.474Z,3.218688
2018-07-15T00:20:06.901Z,1.609344
2018-07-15T00:20:19.573Z,3.218688
2018-07-15T00:20:32.091Z,3.218688
2018-07-15T00:20:44.659Z,3.218688
2018-07-15T00:20:57.058Z,3.218688
2018-07-15T00:21:09.468Z,1.609344
2018-07-15T00:21:21.854Z,3.218688
2018-07-15T00:21:34.271Z,3.218688
2018-07-15T00:21:46.682Z,3.218688
2018-07-15T00:21:59.096Z,3.218688
2018-07-15T00:22:11.502Z,1.609344
2018-07-15T00:22:23.926Z,1.609344
2018-07-15T00:22:36.370Z,1.609344
2018-07-15T00:22:48.776Z,1.609344
2018-07-15T00:23:01.190Z,1.609344
2018-07-15T00:23:13.625Z,0
2018-07-15T00:23:26.047Z,0
2018-07-15T00:23:38.453Z,1.609344
2018-07-15T00:23:50.863Z,1.609344
2018-07-15T00:24:03.263Z,3.218688
2018-07-15T00:24:15.691Z,4.828032
2018-07-15T00:24:28.106Z,4.828032
2018-07-15T00:24:40.486Z,4.828032
2018-07-15T00:24:52.899Z,4.828032
2018-07-15T00:25:05.369Z,1.609344
2018-07-15T00:25:17.770Z,4.828032
2018-07-15T00:25:30.201Z,4.828032
2018-07-15T00:25:42.625Z,4.828032
2018-07-15T00:25:55.029Z,4.828032
2018-07-15T00:26:07.489Z,1.609344
2018-07-15T00:26:19.899Z,3.218688
2018-07-15T00:26:32.287Z,3.218688
2018-07-15T00:26:44.743Z,4.828032
2018-07-15T00:26:57.152Z,6.437376
2018-07-15T00:27:09.592Z,3.218688
2018-07-15T00:27:21.993Z,3.218688
2018-07-15T00:27:34.440Z,3.218688
2018-07-15T00:27:46.863Z,4.828032
2018-07-15T00:27:59.280Z,4.828032
2018-07-15T00:28:11.707Z,1.609344
2018-07-15T00:28:24.229Z,1.609344
2018-07-15T00:28:36.640Z,1.609344
2018-07-15T00:28:49.074Z,1.609344
2018-07-15T00:29:01.544Z,1.609344
2018-07-15T00:29:13.970Z,1.609344
2018-07-15T00:29:26.359Z,3.218688
2018-07-15T00:29:38.763Z,3.218688
2018-07-15T00:29:51.187Z,6.437376
2018-07-15T00:30:03.579Z,6.437376
2018-07-15T00:30:15.990Z,3.218688
2018-07-15T00:30:28.381Z,3.218688
2018-07-15T00:30:40.785Z,3.218688
2018-07-15T00:30:53.196Z,3.218688
2018-07-15T00:31:05.627Z,0
2018-07-15T00:31:18.192Z,1.609344
2018-07-15T00:31:30.621Z,1.609344
2018-07-15T00:31:43.015Z,3.218688
2018-07-15T00:31:55.393Z,3.218688
2018-07-15T00:32:07.782Z,3.218688
2018-07-15T00:32:20.197Z,3.218688
2018-07-15T00:32:32.585Z,3.218688
2018-07-15T00:32:45.008Z,3.218688
2018-07-15T00:32:57.438Z,3.218688
2018-07-15T00:33:09.876Z,3.218688
2018-07-15T00:33:22.282Z,3.218688
2018-07-15T00:33:34.692Z,3.218688
2018-07-15T00:33:47.087Z,3.218688
2018-07-15T00:33:59.477Z,3.218688
2018-07-15T00:34:11.900Z,1.609344
2018-07-15T00:34:24.327Z,1.609344
2018-07-15T00:34:36.801Z,1.609344
2018-07-15T00:34:49.209Z,1.609344
2018-07-15T00:35:01.603Z,3.218688
2018-07-15T00:35:14.026Z,1.609344
2018-07-15T00:35:26.422Z,1.609344
2018-07-15T00:35:38.818Z,1.609344
2018-07-15T00:35:51.222Z,1.609344
2018-07-15T00:36:03.617Z,3.218688
2018-07-15T00:36:16.061Z,3.218688
2018-07-15T00:36:28.493Z,3.218688
2018-07-15T00:36:40.897Z,3.218688
2018-07-15T00:36:53.303Z,3.218688
2018-07-15T00:37:05.702Z,3.218688
2018-07-15T00:37:18.131Z,3.218688
2018-07-15T00:37:30.519Z,3.218688
2018-07-15T00:37:42.935Z,3.218688
2018-07-15T00:37:55.342Z,3.218688
2018-07-15T00:38:07.747Z,1.609344
2018-07-15T00:38:20.145Z,3.218688
2018-07-15T00:38:32.618Z,3.218688
2018-07-15T00:38:45.034Z,3.218688
2018-07-15T00:38:57.473Z,3.218688
2018-07-15T00:39:09.861Z,1.609344
2018-07-15T00:39:22.291Z,3.218688
2018-07-15T00:39:34.671Z,3.218688
2018-07-15T00:39:47.075Z,3.218688
2018-07-15T00:39:59.503Z,3.218688
2018-07-15T00:40:11.953Z,0
2018-07-15T00:40:24.357Z,0
2018-07-15T00:40:36.745Z,3.218688
2018-07-15T00:40:49.183Z,3.218688
2018-07-15T00:41:01.579Z,3.218688
2018-07-15T00:41:13.975Z,1.609344
2018-07-15T00:41:26.461Z,1.609344
2018-07-15T00:41:38.850Z,1.609344
2018-07-15T00:41:51.248Z,3.218688
2018-07-15T00:42:03.650Z,3.218688
2018-07-15T00:42:16.068Z,3.218688
2018-07-15T00:42:28.477Z,3.218688
2018-07-15T00:42:40.872Z,3.218688
2018-07-15T00:42:53.270Z,3.218688
2018-07-15T00:43:05.740Z,3.218688
2018-07-15T00:43:18.154Z,6.437376
2018-07-15T00:43:30.552Z,6.437376
2018-07-15T00:43:42.992Z,6.437376
2018-07-15T00:43:55.411Z,6.437376
2018-07-15T00:44:07.816Z,1.609344
2018-07-15T00:44:20.219Z,3.218688
2018-07-15T00:44:32.636Z,3.218688
2018-07-15T00:44:45.052Z,3.218688
2018-07-15T00:44:57.593Z,3.218688
2018-07-15T00:45:10.011Z,3.218688
2018-07-15T00:45:22.441Z,6.437376
2018-07-15T00:45:34.855Z,6.437376
2018-07-15T00:45:47.257Z,6.437376
2018-07-15T00:45:59.642Z,6.437376
2018-07-15T00:46:12.061Z,3.218688
2018-07-15T00:46:24.526Z,4.828032
2018-07-15T00:46:36.927Z,4.828032
2018-07-15T00:46:49.361Z,4.828032
2018-07-15T00:47:01.773Z,4.828032
2018-07-15T00:47:14.187Z,1.609344
2018-07-15T00:47:26.579Z,3.218688
2018-07-15T00:47:38.956Z,3.218688
2018-07-15T00:47:51.362Z,3.218688
2018-07-15T00:48:03.774Z,3.218688
2018-07-15T00:48:16.192Z,1.609344
2018-07-15T00:48:28.591Z,1.609344
2018-07-15T00:48:41.008Z,3.218688
2018-07-15T00:48:53.723Z,3.218688
2018-07-15T00:49:06.136Z,1.609344
2018-07-15T00:49:18.540Z,1.609344
2018-07-15T00:49:30.984Z,1.609344
2018-07-15T00:49:43.394Z,1.609344
2018-07-15T00:49:55.784Z,1.609344
2018-07-15T00:50:08.219Z,0
2018-07-15T00:50:20.626Z,1.609344
2018-07-15T00:50:33.021Z,1.609344
2018-07-15T00:50:45.439Z,1.609344
2018-07-15T00:50:57.853Z,1.609344
2018-07-15T00:51:10.265Z,1.609344
2018-07-15T00:51:22.676Z,1.609344
2018-07-15T00:51:35.054Z,1.609344
2018-07-15T00:51:47.466Z,3.218688
2018-07-15T00:51:59.947Z,3.218688
2018-07-15T00:52:12.368Z,1.609344
2018-07-15T00:52:24.864Z,1.609344
2018-07-15T00:52:37.253Z,1.609344
2018-07-15T00:52:49.642Z,3.218688
2018-07-15T00:53:02.187Z,3.218688
2018-07-15T00:53:14.580Z,1.609344
2018-07-15T00:53:27.041Z,1.609344
2018-07-15T00:53:39.464Z,1.609344
2018-07-15T00:53:51.896Z,1.609344
2018-07-15T00:54:04.293Z,1.609344
2018-07-15T00:54:16.700Z,1.609344
2018-07-15T00:54:29.095Z,1.609344
2018-07-15T00:54:41.498Z,3.218688
2018-07-15T00:54:53.881Z,3.218688
2018-07-15T00:55:06.316Z,1.609344
2018-07-15T00:55:19.286Z,1.609344
2018-07-15T00:55:32.379Z,1.609344
2018-07-15T00:55:44.800Z,1.609344
2018-07-15T00:55:57.199Z,1.609344
2018-07-15T00:56:09.634Z,1.609344
2018-07-15T00:56:22.040Z,1.609344
2018-07-15T00:56:34.657Z,1.609344
2018-07-15T00:56:47.051Z,1.609344
2018-07-15T00:56:59.456Z,1.609344
2018-07-15T00:57:11.935Z,1.609344
2018-07-15T00:57:24.334Z,1.609344
2018-07-15T00:57:36.771Z,1.609344
2018-07-15T00:57:49.197Z,1.609344
2018-07-15T00:58:01.605Z,1.609344
2018-07-15T00:58:14.036Z,0
2018-07-15T00:58:26.471Z,0
2018-07-15T00:58:38.889Z,0
2018-07-15T00:58:51.296Z,0
2018-07-15T00:59:03.691Z,0
2018-07-15T00:59:16.113Z,0
2018-07-15T00:59:28.529Z,1.609344
2018-07-15T00:59:41.056Z,1.609344
2018-07-15T00:59:53.468Z,1.609344
2018-07-15T01:00:05.962Z,0
2018-07-15T01:00:18.579Z,0
2018-07-15T01:00:31.007Z,0
2018-07-15T01:00:43.467Z,1.609344
2018-07-15T01:00:55.916Z,3.218688
2018-07-15T01:01:08.343Z,3.218688
2018-07-15T01:01:20.795Z,3.218688
2018-07-15T01:01:33.214Z,3.218688
2018-07-15T01:01:45.927Z,3.218688
2018-07-15T01:01:58.331Z,3.218688
2018-07-15T01:02:10.742Z,1.609344
2018-07-15T01:02:23.152Z,1.609344
2018-07-15T01:02:35.622Z,1.609344
2018-07-15T01:02:48.084Z,1.609344
2018-07-15T01:03:00.521Z,6.437376
2018-07-15T01:03:12.945Z,3.218688
2018-07-15T01:03:25.361Z,3.218688
2018-07-15T01:03:37.766Z,3.218688
2018-07-15T01:03:50.177Z,3.218688
2018-07-15T01:04:02.638Z,3.218688
2018-07-15T01:04:15.070Z,1.609344
2018-07-15T01:04:27.470Z,1.609344
2018-07-15T01:04:39.888Z,1.609344
2018-07-15T01:04:52.290Z,1.609344
2018-07-15T01:05:04.760Z,0
2018-07-15T01:05:17.201Z,0
2018-07-15T01:05:29.602Z,1.609344
2018-07-15T01:05:42.012Z,1.609344
2018-07-15T01:05:54.432Z,1.609344
2018-07-15T01:06:06.862Z,0
2018-07-15T01:06:19.272Z,0
2018-07-15T01:06:31.685Z,0
2018-07-15T01:06:44.108Z,0
2018-07-15T01:06:56.528Z,0
2018-07-15T01:07:09.014Z,0
2018-07-15T01:07:21.451Z,0
2018-07-15T01:07:33.858Z,1.609344
2018-07-15T01:07:46.250Z,1.609344
2018-07-15T01:07:58.673Z,1.609344
2018-07-15T01:08:11.103Z,0
2018-07-15T01:08:23.528Z,0
2018-07-15T01:08:35.928Z,1.609344
2018-07-15T01:08:48.364Z,1.609344
2018-07-15T01:09:00.795Z,1.609344
2018-07-15T01:09:13.204Z,0
2018-07-15T01:09:25.615Z,0
2018-07-15T01:09:38.033Z,0
2018-07-15T01:09:50.432Z,0
2018-07-15T01:10:02.825Z,0
2018-07-15T01:10:15.272Z,0
2018-07-15T01:10:27.709Z,0
2018-07-15T01:10:40.114Z,0
2018-07-15T01:10:52.509Z,0
2018-07-15T01:11:04.914Z,0
2018-07-15T01:11:17.335Z,0
2018-07-15T01:11:29.726Z,0
2018-07-15T01:11:42.134Z,0
2018-07-15T01:11:54.552Z,0
2018-07-15T01:12:06.974Z,0
2018-07-15T01:12:19.380Z,0
2018-07-15T01:12:31.777Z,0
2018-07-15T01:12:44.179Z,1.609344
2018-07-15T01:12:56.605Z,1.609344
2018-07-15T01:13:09.172Z,1.609344
2018-07-15T01:13:21.645Z,1.609344
2018-07-15T01:13:34.043Z,3.218688
2018-07-15T01:13:46.443Z,3.218688
2018-07-15T01:13:58.879Z,3.218688
2018-07-15T01:14:11.293Z,1.609344
2018-07-15T01:14:23.735Z,1.609344
2018-07-15T01:14:36.146Z,1.609344
2018-07-15T01:14:48.537Z,1.609344
2018-07-15T01:15:00.942Z,1.609344
2018-07-15T01:15:13.370Z,1.609344
2018-07-15T01:15:25.785Z,1.609344
2018-07-15T01:15:38.199Z,1.609344
2018-07-15T01:15:50.617Z,1.609344
2018-07-15T01:16:03.023Z,1.609344
2018-07-15T01:16:15.425Z,1.609344
2018-07-15T01:16:27.823Z,1.609344
2018-07-15T01:16:40.307Z,1.609344
2018-07-15T01:16:52.744Z,1.609344
2018-07-15T01:17:05.163Z,1.609344
2018-07-15T01:17:17.571Z,1.609344
2018-07-15T01:17:29.967Z,1.609344
2018-07-15T01:17:42.379Z,1.609344
2018-07-15T01:17:54.826Z,1.609344
2018-07-15T01:18:07.217Z,0
2018-07-15T01:18:19.697Z,1.609344
2018-07-15T01:18:32.117Z,1.609344
2018-07-15T01:18:44.493Z,1.609344
2018-07-15T01:18:57.014Z,1.609344
2018-07-15T01:19:09.417Z,1.609344
2018-07-15T01:19:21.861Z,1.609344
2018-07-15T01:19:34.270Z,1.609344
2018-07-15T01:19:46.667Z,1.609344
2018-07-15T01:19:59.051Z,1.609344
2018-07-15T01:20:11.455Z,1.609344
2018-07-15T01:20:23.853Z,1.609344
2018-07-15T01:20:36.462Z,1.609344
2018-07-15T01:20:48.870Z,1.609344
2018-07-15T01:21:01.280Z,1.609344
2018-07-15T01:21:13.679Z,1.609344
2018-07-15T01:21:26.149Z,3.218688
2018-07-15T01:21:38.563Z,3.218688
2018-07-15T01:21:50.954Z,3.218688
2018-07-15T01:22:03.359Z,3.218688
2018-07-15T01:22:15.767Z,1.609344
2018-07-15T01:22:28.166Z,1.609344
2018-07-15T01:22:40.584Z,1.609344
2018-07-15T01:22:52.986Z,1.609344
2018-07-15T01:23:05.446Z,1.609344
2018-07-15T01:23:17.846Z,1.609344
2018-07-15T01:23:30.268Z,1.609344
2018-07-15T01:23:42.677Z,1.609344
2018-07-15T01:23:55.128Z,1.609344
2018-07-15T01:24:07.514Z,0
2018-07-15T01:24:19.925Z,0
2018-07-15T01:24:32.354Z,0
2018-07-15T01:24:44.766Z,0
2018-07-15T01:24:57.152Z,0
2018-07-15T01:25:09.561Z,0
2018-07-15T01:25:21.946Z,0
2018-07-15T01:25:34.360Z,0
2018-07-15T01:25:46.833Z,0
2018-07-15T01:25:59.233Z,0
2018-07-15T01:26:11.645Z,0
2018-07-15T01:26:24.104Z,0
2018-07-15T01:26:36.565Z,0
2018-07-15T01:26:48.972Z,0
2018-07-15T01:27:01.358Z,0
2018-07-15T01:27:13.804Z,0
2018-07-15T01:27:26.214Z,0
2018-07-15T01:27:38.629Z,0
2018-07-15T01:27:51.010Z,0
2018-07-15T01:28:03.444Z,0
2018-07-15T01:28:15.870Z,0
2018-07-15T01:28:28.284Z,0
2018-07-15T01:28:40.666Z,0
2018-07-15T01:28:53.073Z,0
2018-07-15T01:29:05.485Z,0
2018-07-15T01:29:17.895Z,0
2018-07-15T01:29:30.289Z,0
2018-07-15T01:29:42.705Z,0
2018-07-15T01:29:55.121Z,0
2018-07-15T01:30:07.586Z,0
2018-07-15T01:30:19.992Z,0
2018-07-15T01:30:32.436Z,0
2018-07-15T01:30:44.860Z,0
2018-07-15T01:30:57.268Z,0
2018-07-15T01:31:09.674Z,0
2018-07-15T01:31:22.256Z,0
2018-07-15T01:31:34.721Z,0
2018-07-15T01:31:47.221Z,0
2018-07-15T01:31:59.781Z,0
2018-07-15T01:32:12.210Z,0
2018-07-15T01:32:24.627Z,0
2018-07-15T01:32:37.036Z,0
2018-07-15T01:32:49.456Z,0
2018-07-15T01:33:01.860Z,0
2018-07-15T01:33:14.276Z,0
2018-07-15T01:33:26.683Z,0
2018-07-15T01:33:39.121Z,0
2018-07-15T01:33:51.534Z,0
2018-07-15T01:34:03.951Z,1.609344
2018-07-15T01:34:16.351Z,3.218688
2018-07-15T01:34:28.743Z,3.218688
2018-07-15T01:34:41.172Z,3.218688
2018-07-15T01:34:53.608Z,3.218688
2018-07-15T01:35:06.012Z,1.609344
2018-07-15T01:35:18.448Z,1.609344
2018-07-15T01:35:30.841Z,3.218688
2018-07-15T01:35:43.234Z,3.218688
2018-07-15T01:35:55.635Z,3.218688
2018-07-15T01:36:08.037Z,3.218688
2018-07-15T01:36:20.441Z,3.218688
2018-07-15T01:36:32.879Z,3.218688
2018-07-15T01:36:45.298Z,3.218688
2018-07-15T01:36:57.743Z,3.218688
2018-07-15T01:37:10.147Z,3.218688
2018-07-15T01:37:22.568Z,3.218688
2018-07-15T01:37:34.976Z,3.218688
2018-07-15T01:37:47.379Z,3.218688
2018-07-15T01:37:59.783Z,3.218688
2018-07-15T01:38:12.172Z,0
2018-07-15T01:38:24.666Z,0
2018-07-15T01:38:37.074Z,0
2018-07-15T01:38:49.485Z,0
2018-07-15T01:39:01.900Z,0
2018-07-15T01:39:14.365Z,0
2018-07-15T01:39:26.769Z,0
2018-07-15T01:39:39.289Z,0
2018-07-15T01:39:51.708Z,0
2018-07-15T01:40:04.116Z,1.609344
2018-07-15T01:40:16.527Z,1.609344
2018-07-15T01:40:28.928Z,1.609344
2018-07-15T01:40:41.342Z,3.218688
2018-07-15T01:40:53.729Z,3.218688
2018-07-15T01:41:06.121Z,1.609344
2018-07-15T01:41:18.515Z,1.609344
2018-07-15T01:41:30.915Z,1.609344
2018-07-15T01:41:43.383Z,1.609344
2018-07-15T01:41:55.797Z,1.609344
2018-07-15T01:42:08.225Z,0
2018-07-15T01:42:20.630Z,1.609344
2018-07-15T01:42:33.061Z,3.218688
2018-07-15T01:42:45.475Z,3.218688
2018-07-15T01:42:57.891Z,3.218688
2018-07-15T01:43:10.330Z,1.609344
2018-07-15T01:43:22.770Z,1.609344
2018-07-15T01:43:35.166Z,1.609344
2018-07-15T01:43:47.553Z,1.609344
2018-07-15T01:43:59.958Z,1.609344
2018-07-15T01:44:12.371Z,1.609344
2018-07-15T01:44:24.785Z,1.609344
2018-07-15T01:44:37.256Z,1.609344
2018-07-15T01:44:49.647Z,1.609344
2018-07-15T01:45:02.211Z,1.609344
2018-07-15T01:45:14.646Z,0
2018-07-15T01:45:27.065Z,0
2018-07-15T01:45:39.449Z,0
2018-07-15T01:45:51.861Z,0
2018-07-15T01:46:04.273Z,0
2018-07-15T01:46:16.698Z,0
2018-07-15T01:46:29.112Z,0
2018-07-15T01:46:41.505Z,0
2018-07-15T01:46:53.903Z,0
2018-07-15T01:47:06.309Z,0
2018-07-15T01:47:18.724Z,0
2018-07-15T01:47:31.146Z,0
2018-07-15T01:47:43.565Z,0
2018-07-15T01:47:55.964Z,0
2018-07-15T01:48:08.373Z,0
2018-07-15T01:48:20.782Z,0
2018-07-15T01:48:33.182Z,0
2018-07-15T01:48:45.725Z,0
2018-07-15T01:48:58.153Z,0
2018-07-15T01:49:10.598Z,0
2018-07-15T01:49:23.028Z,0
2018-07-15T01:49:35.454Z,0
2018-07-15T01:49:47.844Z,0
2018-07-15T01:50:00.293Z,0
2018-07-15T01:50:12.697Z,0
2018-07-15T01:50:25.185Z,0
2018-07-15T01:50:37.646Z,0
2018-07-15T01:50:50.051Z,0
2018-07-15T01:51:02.473Z,0
2018-07-15T01:51:14.897Z,0
2018-07-15T01:51:27.330Z,0
2018-07-15T01:51:39.751Z,0
2018-07-15T01:51:52.170Z,0
2018-07-15T01:52:04.626Z,0
2018-07-15T01:52:17.033Z,0
2018-07-15T01:52:29.444Z,0
2018-07-15T01:52:41.900Z,0
2018-07-15T01:52:54.328Z,0
2018-07-15T01:53:07.221Z,0
2018-07-15T01:53:19.634Z,0
2018-07-15T01:53:32.036Z,0
2018-07-15T01:53:44.428Z,0
2018-07-15T01:53:56.816Z,0
2018-07-15T01:54:09.223Z,0
2018-07-15T01:54:21.647Z,0
2018-07-15T01:54:34.083Z,0
2018-07-15T01:54:46.516Z,0
2018-07-15T01:54:58.927Z,0
2018-07-15T01:55:11.351Z,0
2018-07-15T01:55:23.813Z,0
2018-07-15T01:55:36.230Z,0
2018-07-15T01:55:48.649Z,0
2018-07-15T01:56:01.052Z,0
2018-07-15T01:56:13.462Z,0
2018-07-15T01:56:25.862Z,0
2018-07-15T01:56:38.254Z,1.609344
2018-07-15T01:56:50.656Z,1.609344
2018-07-15T01:57:03.042Z,1.609344
2018-07-15T01:57:15.447Z,1.609344
2018-07-15T01:57:27.844Z,1.609344
2018-07-15T01:57:40.262Z,1.609344
2018-07-15T01:57:52.673Z,1.609344
2018-07-15T01:58:05.108Z,0
2018-07-15T01:58:17.522Z,1.609344
2018-07-15T01:58:29.947Z,1.609344
2018-07-15T01:58:42.397Z,1.609344
2018-07-15T01:58:54.807Z,1.609344
2018-07-15T01:59:07.211Z,0
2018-07-15T01:59:19.708Z,1.609344
2018-07-15T01:59:32.110Z,1.609344
2018-07-15T01:59:44.520Z,1.609344
2018-07-15T01:59:56.985Z,1.609344
2018-07-15T02:00:09.556Z,0
2018-07-15T02:00:22.108Z,0
2018-07-15T02:00:34.567Z,0
2018-07-15T02:00:46.986Z,0
2018-07-15T02:00:59.417Z,0
2018-07-15T02:01:11.827Z,0
2018-07-15T02:01:24.261Z,0
2018-07-15T02:01:36.685Z,0
2018-07-15T02:01:49.179Z,0
2018-07-15T02:02:01.608Z,0
2018-07-15T02:02:14.070Z,0
2018-07-15T02:02:26.501Z,0
2018-07-15T02:02:38.899Z,0
2018-07-15T02:02:51.298Z,0
2018-07-15T02:03:03.697Z,0
2018-07-15T02:03:16.168Z,0
2018-07-15T02:03:28.572Z,0
2018-07-15T02:03:40.986Z,0
2018-07-15T02:03:53.405Z,0
2018-07-15T02:04:05.785Z,0
2018-07-15T02:04:18.188Z,0
2018-07-15T02:04:30.598Z,0
2018-07-15T02:04:42.996Z,0
2018-07-15T02:04:55.408Z,0
2018-07-15T02:05:07.819Z,0
2018-07-15T02:05:20.393Z,0
2018-07-15T02:05:32.802Z,0
2018-07-15T02:05:45.217Z,0
2018-07-15T02:05:57.623Z,0
2018-07-15T02:06:10.065Z,0
2018-07-15T02:06:22.474Z,0
2018-07-15T02:06:34.896Z,0
2018-07-15T02:06:47.305Z,0
2018-07-15T02:06:59.695Z,0
2018-07-15T02:07:12.106Z,0
2018-07-15T02:07:24.490Z,0
2018-07-15T02:07:36.889Z,0
2018-07-15T02:07:49.315Z,0
2018-07-15T02:08:01.756Z,0
2018-07-15T02:08:14.181Z,0
2018-07-15T02:08:26.574Z,0
2018-07-15T02:08:38.972Z,0
2018-07-15T02:08:51.365Z,0
2018-07-15T02:09:03.786Z,0
2018-07-15T02:09:16.200Z,0
2018-07-15T02:09:28.604Z,0
2018-07-15T02:09:41.017Z,0
2018-07-15T02:09:53.404Z,0
2018-07-15T02:10:06.102Z,0
2018-07-15T02:10:18.836Z,0
2018-07-15T02:10:31.236Z,0
2018-07-15T02:10:43.659Z,0
2018-07-15T02:10:56.064Z,0
2018-07-15T02:11:08.491Z,0
2018-07-15T02:11:20.912Z,0
2018-07-15T02:11:33.302Z,0
2018-07-15T02:11:45.688Z,0
2018-07-15T02:11:58.108Z,0
2018-07-15T02:12:10.503Z,0
2018-07-15T02:12:22.936Z,0
2018-07-15T02:12:35.368Z,0
2018-07-15T02:12:47.839Z,0
2018-07-15T02:13:00.325Z,0
2018-07-15T02:13:12.814Z,0
2018-07-15T02:13:25.255Z,0
2018-07-15T02:13:37.680Z,0
2018-07-15T02:13:50.208Z,0
2018-07-15T02:14:02.639Z,0
2018-07-15T02:14:15.059Z,0
2018-07-15T02:14:27.491Z,0
2018-07-15T02:14:39.914Z,0
2018-07-15T02:14:52.346Z,0
2018-07-15T02:15:04.759Z,0
2018-07-15T02:15:17.205Z,0
2018-07-15T02:15:29.651Z,0
2018-07-15T02:15:42.064Z,0
2018-07-15T02:15:54.461Z,0
2018-07-15T02:16:06.872Z,0
2018-07-15T02:16:19.280Z,0
2018-07-15T02:16:31.705Z,0
2018-07-15T02:16:44.090Z,0
2018-07-15T02:16:56.510Z,0
2018-07-15T02:17:08.931Z,0
2018-07-15T02:17:21.345Z,0
2018-07-15T02:17:33.742Z,0
2018-07-15T02:17:46.124Z,0
2018-07-15T02:17:58.543Z,0
2018-07-15T02:18:10.949Z,0
2018-07-15T02:18:23.350Z,0
2018-07-15T02:18:35.753Z,0
2018-07-15T02:18:48.206Z,0
2018-07-15T02:19:00.617Z,0
2018-07-15T02:19:13.043Z,0
2018-07-15T02:19:25.461Z,0
2018-07-15T02:19:37.901Z,0
2018-07-15T02:19:50.299Z,0
2018-07-15T02:20:02.712Z,0
2018-07-15T02:20:15.131Z,0
2018-07-15T02:20:27.530Z,0
2018-07-15T02:20:40.165Z,0
2018-07-15T02:20:52.574Z,0
2018-07-15T02:21:05.002Z,0
2018-07-15T02:21:17.408Z,0
2018-07-15T02:21:29.840Z,0
2018-07-15T02:21:42.251Z,0
2018-07-15T02:21:54.643Z,0
2018-07-15T02:22:07.050Z,0
2018-07-15T02:22:19.460Z,0
2018-07-15T02:22:31.917Z,0
2018-07-15T02:22:44.330Z,0
2018-07-15T02:22:56.721Z,0
2018-07-15T02:23:09.115Z,0
2018-07-15T02:23:21.521Z,0
2018-07-15T02:23:33.935Z,0
2018-07-15T02:23:46.335Z,0
2018-07-15T02:23:58.726Z,0
2018-07-15T02:24:11.131Z,0
2018-07-15T02:24:23.528Z,0
2018-07-15T02:24:35.932Z,0
2018-07-15T02:24:48.347Z,0
2018-07-15T02:25:00.748Z,0
2018-07-15T02:25:13.156Z,0
2018-07-15T02:25:25.547Z,0
2018-07-15T02:25:37.975Z,0
2018-07-15T02:25:50.375Z,0
2018-07-15T02:26:02.791Z,0
2018-07-15T02:26:15.211Z,0
2018-07-15T02:26:27.659Z,0
2018-07-15T02:26:40.068Z,0
2018-07-15T02:26:52.502Z,0
2018-07-15T02:27:04.928Z,0
2018-07-15T02:27:17.408Z,0
2018-07-15T02:27:29.808Z,0
2018-07-15T02:27:42.231Z,0
2018-07-15T02:27:54.646Z,0
2018-07-15T02:28:07.044Z,0
2018-07-15T02:28:19.621Z,0
2018-07-15T02:28:32.012Z,0
2018-07-15T02:28:44.428Z,0
2018-07-15T02:28:56.823Z,0
2018-07-15T02:29:09.230Z,0
2018-07-15T02:29:21.629Z,0
2018-07-15T02:29:34.098Z,0
2018-07-15T02:29:46.503Z,0
2018-07-15T02:29:58.906Z,0
2018-07-15T02:30:11.358Z,0
2018-07-15T02:30:23.793Z,0
2018-07-15T02:30:36.207Z,0
2018-07-15T02:30:48.659Z,0
2018-07-15T02:31:01.068Z,0
2018-07-15T02:31:13.648Z,0
2018-07-15T02:31:26.057Z,0
2018-07-15T02:31:38.501Z,0
2018-07-15T02:31:50.947Z,0
2018-07-15T02:32:03.550Z,0
2018-07-15T02:32:15.966Z,0
2018-07-15T02:32:28.411Z,0
2018-07-15T02:32:40.880Z,0
2018-07-15T02:32:53.304Z,0
2018-07-15T02:33:05.742Z,0
2018-07-15T02:33:18.163Z,0
2018-07-15T02:33:30.571Z,0
2018-07-15T02:33:43.096Z,0
2018-07-15T02:33:55.530Z,0
2018-07-15T02:34:07.980Z,0
2018-07-15T02:34:20.412Z,0
2018-07-15T02:34:32.854Z,0
2018-07-15T02:34:45.263Z,0
2018-07-15T02:34:57.660Z,0
2018-07-15T02:35:10.127Z,0
2018-07-15T02:35:22.564Z,0
2018-07-15T02:35:34.991Z,0
2018-07-15T02:35:47.479Z,0
2018-07-15T02:35:59.884Z,0
2018-07-15T02:36:12.311Z,0
2018-07-15T02:36:24.750Z,0
2018-07-15T02:36:37.545Z,0
2018-07-15T02:36:51.305Z,0
2018-07-15T02:37:04.035Z,0
2018-07-15T02:37:16.463Z,0
2018-07-15T02:37:28.890Z,0
2018-07-15T02:37:41.329Z,0
2018-07-15T02:37:53.757Z,0
2018-07-15T02:38:06.197Z,0
2018-07-15T02:38:18.634Z,0
2018-07-15T02:38:31.058Z,0
2018-07-15T02:38:43.493Z,0
2018-07-15T02:38:55.936Z,0
2018-07-15T02:39:08.393Z,0
2018-07-15T02:39:20.857Z,0
2018-07-15T02:39:33.308Z,0
2018-07-15T02:39:45.883Z,0
2018-07-15T02:39:58.311Z,0
2018-07-15T02:40:10.769Z,0
2018-07-15T02:40:23.195Z,0
2018-07-15T02:40:35.692Z,0
2018-07-15T02:40:48.137Z,0
2018-07-15T02:41:00.569Z,0
2018-07-15T02:41:12.982Z,0
2018-07-15T02:41:25.428Z,0